Time;durP1;ratioP1;P1;durP2;ratioP2;P2;SDS_P1;SDS_P2;PMS_P1;PMS_P2;Temp;Humidity;BMP_temperature;BMP_pressure;BME280_temperature;BME280_humidity;BME280_pressure;Samples;Min_cycle;Max_cycle;Signal;HPM_P1;HPM_P2
2023/05/20 00:00:09;;;;;;;8.38;4.72;;;11.30;99.90;;;;;;6214635;23;20177;-72
2023/05/20 00:02:34;;;;;;;11.40;5.10;;;11.20;99.90;;;;;;6216096;23;20013;-73
2023/05/20 00:05:00;;;;;;;7.80;4.75;;;11.30;99.90;;;;;;6215886;23;20084;-73
2023/05/20 00:07:26;;;;;;;7.32;4.25;;;11.30;99.90;;;;;;6215919;23;20009;-73
2023/05/20 00:09:52;;;;;;;8.98;4.40;;;11.30;99.90;;;;;;6215553;23;20008;-73
2023/05/20 00:12:17;;;;;;;6.78;4.28;;;11.20;99.90;;;;;;6215204;23;20071;-73
2023/05/20 00:14:43;;;;;;;11.07;5.03;;;11.20;99.90;;;;;;6214959;23;20013;-72
2023/05/20 00:17:09;;;;;;;8.70;4.88;;;11.20;99.90;;;;;;6213361;23;20318;-73
2023/05/20 00:19:34;;;;;;;11.38;5.10;;;11.20;99.90;;;;;;6212094;23;20016;-73
2023/05/20 00:22:00;;;;;;;9.77;5.10;;;11.30;99.90;;;;;;6212434;23;20021;-73
2023/05/20 00:24:26;;;;;;;8.15;4.90;;;11.30;99.90;;;;;;6215221;23;20020;-73
2023/05/20 00:26:52;;;;;;;8.55;4.80;;;11.20;99.90;;;;;;6214376;23;20111;-73
2023/05/20 00:29:20;;;;;;;9.52;4.55;;;11.20;99.90;;;;;;6215130;23;20017;-73
2023/05/20 00:31:46;;;;;;;7.35;4.78;;;11.30;99.90;;;;;;6215173;23;20013;-73
2023/05/20 00:34:11;;;;;;;9.23;5.10;;;11.30;99.90;;;;;;6214782;23;20013;-73
2023/05/20 00:36:37;;;;;;;8.80;4.82;;;11.20;99.90;;;;;;6214950;23;20028;-73
2023/05/20 00:39:03;;;;;;;11.23;5.20;;;11.20;99.90;;;;;;6213978;23;20019;-72
2023/05/20 00:41:28;;;;;;;7.50;5.47;;;11.30;99.90;;;;;;6214776;23;20020;-72
2023/05/20 00:43:54;;;;;;;11.73;4.90;;;11.20;99.90;;;;;;6214514;23;20013;-73
2023/05/20 00:46:21;;;;;;;10.48;5.30;;;11.20;99.90;;;;;;6214545;23;20066;-73
2023/05/20 00:48:47;;;;;;;7.93;5.03;;;11.20;99.90;;;;;;6214929;23;20012;-73
2023/05/20 00:51:13;;;;;;;7.95;5.25;;;11.20;99.90;;;;;;6215647;23;20020;-73
2023/05/20 00:53:40;;;;;;;9.90;5.40;;;11.20;99.90;;;;;;6215314;23;20008;-74
2023/05/20 00:56:07;;;;;;;10.85;6.25;;;11.20;99.90;;;;;;6214775;23;20517;-73
2023/05/20 00:58:35;;;;;;;8.63;4.80;;;11.20;99.90;;;;;;6215378;23;20187;-73
2023/05/20 01:01:01;;;;;;;11.45;5.05;;;11.20;99.90;;;;;;6214493;23;20251;-73
2023/05/20 01:03:28;;;;;;;10.60;6.18;;;11.20;99.90;;;;;;6214338;23;20027;-73
2023/05/20 01:05:53;;;;;;;9.57;5.38;;;11.20;99.90;;;;;;6215339;23;20009;-73
2023/05/20 01:08:20;;;;;;;13.52;5.22;;;11.30;99.90;;;;;;6215212;23;20086;-73
2023/05/20 01:10:50;;;;;;;6.25;5.07;;;11.30;99.90;;;;;;6215270;23;20009;-72
2023/05/20 01:13:20;;;;;;;9.18;5.07;;;11.20;99.90;;;;;;6215115;23;20047;-72
2023/05/20 01:15:48;;;;;;;8.85;5.40;;;11.20;99.90;;;;;;6214974;23;20512;-72
2023/05/20 01:18:17;;;;;;;8.07;5.05;;;11.30;99.90;;;;;;6215051;23;20379;-73
2023/05/20 01:20:48;;;;;;;8.18;5.13;;;11.30;99.90;;;;;;6215208;23;20020;-72
2023/05/20 01:23:14;;;;;;;11.15;5.13;;;11.30;99.90;;;;;;6212764;23;20017;-73
2023/05/20 01:25:41;;;;;;;12.60;5.13;;;11.30;99.90;;;;;;6211999;23;20060;-73
2023/05/20 01:28:08;;;;;;;8.90;5.05;;;11.30;99.90;;;;;;6184060;23;20052;-73
2023/05/20 01:30:40;;;;;;;9.07;5.77;;;11.30;99.90;;;;;;6215334;23;20013;-72
2023/05/20 01:33:10;;;;;;;13.48;5.57;;;11.30;99.90;;;;;;6215137;23;20020;-72
2023/05/20 01:35:37;;;;;;;8.23;5.10;;;11.30;99.90;;;;;;6186603;23;20017;-72
2023/05/20 01:38:05;;;;;;;6.78;4.88;;;11.30;99.90;;;;;;6214381;23;20016;-73
2023/05/20 01:40:31;;;;;;;;;;;11.30;99.90;;;;;;6214850;23;20075;-72
2023/05/20 01:42:58;;;;;;;8.07;4.93;;;11.30;99.90;;;;;;6187485;23;19920;-72
2023/05/20 01:45:24;;;;;;;10.63;5.07;;;11.30;99.90;;;;;;6214189;23;20016;-72
2023/05/20 01:47:51;;;;;;;7.28;4.75;;;11.30;99.90;;;;;;6213460;23;20008;-72
2023/05/20 01:50:17;;;;;;;11.15;4.95;;;11.30;99.90;;;;;;6214038;23;20024;-72
2023/05/20 01:52:42;;;;;;;8.80;5.05;;;11.30;99.90;;;;;;6213849;23;20012;-72
2023/05/20 01:55:08;;;;;;;7.50;5.00;;;11.30;99.90;;;;;;6214586;23;20024;-73
2023/05/20 01:57:34;;;;;;;8.43;5.22;;;11.30;99.90;;;;;;6214003;23;20013;-73
2023/05/20 01:59:59;;;;;;;9.15;4.80;;;11.30;99.90;;;;;;6214510;23;20012;-73
2023/05/20 02:02:25;;;;;;;9.05;5.22;;;11.30;99.90;;;;;;6213017;23;20013;-72
2023/05/20 02:04:52;;;;;;;9.10;4.75;;;11.30;99.90;;;;;;6210701;23;20415;-72
2023/05/20 02:07:18;;;;;;;7.32;5.25;;;11.30;99.90;;;;;;6214469;23;20016;-72
2023/05/20 02:09:44;;;;;;;10.73;4.88;;;11.30;99.90;;;;;;6215578;23;20482;-73
2023/05/20 02:12:15;;;;;;;10.52;5.03;;;11.30;99.90;;;;;;6215305;23;20017;-73
2023/05/20 02:14:46;;;;;;;9.45;5.05;;;11.30;99.90;;;;;;6188219;23;20020;-73
2023/05/20 02:17:15;;;;;;;9.13;4.90;;;11.30;99.90;;;;;;6215026;23;20310;-72
2023/05/20 02:19:42;;;;;;;9.80;4.75;;;11.30;99.90;;;;;;6187139;23;20062;-72
2023/05/20 02:22:08;;;;;;;7.28;4.80;;;11.30;99.90;;;;;;6214510;23;20023;-72
2023/05/20 02:24:34;;;;;;;6.70;4.90;;;11.40;99.90;;;;;;6215115;23;20118;-72
2023/05/20 02:27:00;;;;;;;9.20;4.68;;;11.40;99.90;;;;;;6215589;23;20016;-72
2023/05/20 02:29:26;;;;;;;8.77;4.35;;;11.40;99.90;;;;;;6214829;23;20024;-72
2023/05/20 02:31:51;;;;;;;8.50;5.00;;;11.40;99.90;;;;;;6213183;23;20034;-72
2023/05/20 02:34:17;;;;;;;6.97;4.65;;;11.40;99.90;;;;;;6210712;23;20017;-72
2023/05/20 02:36:43;;;;;;;11.15;4.55;;;11.40;99.90;;;;;;6211071;23;20027;-72
2023/05/20 02:39:08;;;;;;;8.10;3.88;;;11.40;99.90;;;;;;6213888;23;20084;-72
2023/05/20 02:41:35;;;;;;;7.05;4.88;;;11.40;99.90;;;;;;6214615;23;20067;-71
2023/05/20 02:44:00;;;;;;;8.00;4.65;;;11.50;99.90;;;;;;6214225;23;20021;-71
2023/05/20 02:46:26;;;;;;;10.40;4.93;;;11.40;99.90;;;;;;6214029;23;20286;-73
2023/05/20 02:48:51;;;;;;;7.93;3.95;;;11.50;99.90;;;;;;6187213;23;20024;-74
2023/05/20 02:51:17;;;;;;;8.77;4.22;;;11.40;99.90;;;;;;6214399;23;20020;-74
2023/05/20 02:53:42;;;;;;;8.68;4.38;;;11.40;99.90;;;;;;6214329;23;20017;-74
2023/05/20 02:56:08;;;;;;;6.43;4.55;;;11.40;99.90;;;;;;6213377;23;20013;-74
2023/05/20 02:58:34;;;;;;;9.20;4.55;;;11.40;99.90;;;;;;6213727;23;20013;-74
2023/05/20 03:01:00;;;;;;;7.63;4.25;;;11.40;99.90;;;;;;6213422;23;20103;-74
2023/05/20 03:03:26;;;;;;;7.43;4.40;;;11.40;99.90;;;;;;6213879;23;20017;-73
2023/05/20 03:05:52;;;;;;;11.25;4.72;;;11.40;99.90;;;;;;6213000;23;20016;-74
2023/05/20 03:08:20;;;;;;;8.07;4.07;;;11.30;99.90;;;;;;6213071;23;20324;-73
2023/05/20 03:10:45;;;;;;;7.65;4.30;;;11.30;99.90;;;;;;6213573;23;20023;-74
2023/05/20 03:13:11;;;;;;;7.75;4.15;;;11.30;99.90;;;;;;6214726;23;20016;-74
2023/05/20 03:15:38;;;;;;;10.68;4.53;;;11.30;99.90;;;;;;6214845;23;20020;-73
2023/05/20 03:18:04;;;;;;;8.68;4.28;;;11.30;99.90;;;;;;6215317;23;20035;-72
2023/05/20 03:20:37;;;;;;;9.60;4.38;;;11.20;99.90;;;;;;6215590;23;20024;-73
2023/05/20 03:23:03;;;;;;;9.93;3.78;;;11.20;99.90;;;;;;6216282;23;20012;-73
2023/05/20 03:25:29;;;;;;;12.25;4.70;;;11.20;99.90;;;;;;6189904;23;20017;-73
2023/05/20 03:27:57;;;;;;;7.88;4.22;;;11.20;99.90;;;;;;6215776;23;20341;-73
2023/05/20 03:30:23;;;;;;;8.77;4.00;;;11.20;99.90;;;;;;6214180;23;20441;-73
2023/05/20 03:32:48;;;;;;;5.22;3.80;;;11.10;99.90;;;;;;6215112;23;20063;-73
2023/05/20 03:35:14;;;;;;;4.60;3.65;;;11.10;99.90;;;;;;6214322;23;20009;-72
2023/05/20 03:37:39;;;;;;;6.07;3.80;;;11.00;99.90;;;;;;6214407;23;20008;-73
2023/05/20 03:40:06;;;;;;;6.70;3.95;;;11.00;99.90;;;;;;6214266;23;20021;-73
2023/05/20 03:42:33;;;;;;;6.72;4.15;;;11.00;99.90;;;;;;6215296;23;20013;-73
2023/05/20 03:44:59;;;;;;;6.55;4.07;;;10.90;99.90;;;;;;6212947;23;20024;-73
2023/05/20 03:47:25;;;;;;;8.65;4.05;;;10.90;99.90;;;;;;6214379;23;20445;-73
2023/05/20 03:49:51;;;;;;;6.45;3.88;;;10.90;99.90;;;;;;6213313;23;20506;-73
2023/05/20 03:52:17;;;;;;;6.75;3.72;;;10.90;99.90;;;;;;6213468;23;20087;-73
2023/05/20 03:54:42;;;;;;;8.43;4.00;;;10.90;99.90;;;;;;6214994;23;20029;-73
2023/05/20 03:57:09;;;;;;;6.18;4.03;;;10.80;99.90;;;;;;6214610;23;20023;-73
2023/05/20 03:59:35;;;;;;;7.60;3.83;;;10.90;99.90;;;;;;6187584;23;20088;-73
2023/05/20 04:02:01;;;;;;;7.53;3.90;;;10.80;99.90;;;;;;6214375;23;20016;-73
2023/05/20 04:04:28;;;;;;;5.47;3.28;;;10.80;99.90;;;;;;6214308;23;20008;-73
2023/05/20 04:06:53;;;;;;;5.60;3.42;;;10.80;99.90;;;;;;6188162;23;20433;-73
2023/05/20 04:09:19;;;;;;;5.72;3.17;;;10.90;99.90;;;;;;6214952;23;20017;-73
2023/05/20 04:11:45;;;;;;;7.22;3.95;;;10.90;99.90;;;;;;6215415;23;20453;-73
2023/05/20 04:14:10;;;;;;;6.47;3.20;;;10.90;99.90;;;;;;6213798;23;20020;-74
2023/05/20 04:16:36;;;;;;;4.85;3.25;;;10.90;99.90;;;;;;6215042;23;20464;-72
2023/05/20 04:19:02;;;;;;;5.50;2.65;;;10.90;99.90;;;;;;6213899;23;20015;-72
2023/05/20 04:21:28;;;;;;;5.00;3.10;;;11.00;99.90;;;;;;6216042;23;20023;-73
2023/05/20 04:23:54;;;;;;;5.90;3.28;;;11.00;99.90;;;;;;6214104;23;20008;-74
2023/05/20 04:26:20;;;;;;;6.50;3.05;;;11.10;99.90;;;;;;6215124;23;20048;-73
2023/05/20 04:28:48;;;;;;;6.40;3.15;;;11.10;99.90;;;;;;6214944;23;20051;-72
2023/05/20 04:31:14;;;;;;;8.02;3.13;;;;;;;;;;6214599;23;20445;-73
2023/05/20 04:33:41;;;;;;;4.78;3.13;;;;;;;;;;6214824;23;20019;-73
2023/05/20 04:36:10;;;;;;;6.20;3.28;;;11.30;99.90;;;;;;6215853;23;20091;-72
2023/05/20 04:38:36;;;;;;;4.72;2.97;;;11.40;99.90;;;;;;6214633;23;20083;-73
2023/05/20 04:41:02;;;;;;;3.55;2.85;;;11.60;99.90;;;;;;6214947;23;20381;-74
2023/05/20 04:43:28;;;;;;;5.75;3.03;;;12.40;99.90;;;;;;6187629;23;20023;-74
2023/05/20 04:45:58;;;;;;;6.28;2.58;;;13.30;99.90;;;;;;6215101;23;20009;-74
2023/05/20 04:48:24;;;;;;;5.85;2.75;;;14.40;99.90;;;;;;6213927;23;20039;-74
2023/05/20 04:50:50;;;;;;;4.15;2.60;;;14.80;99.90;;;;;;6214428;23;20111;-73
2023/05/20 04:53:17;;;;;;;3.75;2.63;;;15.10;99.90;;;;;;6215260;23;20017;-74
2023/05/20 04:55:43;;;;;;;3.80;2.60;;;15.90;99.90;;;;;;6213981;23;20016;-73
2023/05/20 04:58:14;;;;;;;5.50;2.58;;;15.90;99.90;;;;;;6215016;23;20012;-74
2023/05/20 05:00:43;;;;;;;3.97;2.25;;;16.40;99.90;;;;;;6215012;23;20012;-73
2023/05/20 05:03:11;;;;;;;5.22;2.45;;;16.60;99.90;;;;;;6214945;23;20452;-73
2023/05/20 05:05:37;;;;;;;3.42;1.98;;;16.60;99.90;;;;;;6215098;23;20016;-74
2023/05/20 05:08:07;;;;;;;4.03;2.05;;;16.50;99.90;;;;;;6214358;23;20016;-74
2023/05/20 05:10:33;;;;;;;5.38;2.50;;;16.90;99.90;;;;;;6214762;23;20024;-73
2023/05/20 05:12:59;;;;;;;3.95;2.40;;;16.70;99.90;;;;;;6215358;23;20079;-72
2023/05/20 05:15:25;;;;;;;4.13;2.15;;;16.80;99.90;;;;;;6214269;23;20020;-74
2023/05/20 05:17:50;;;;;;;3.17;2.38;;;17.10;99.90;;;;;;6214752;23;20080;-74
2023/05/20 05:20:16;;;;;;;3.03;2.13;;;17.10;99.90;;;;;;6187475;23;20086;-75
2023/05/20 05:22:42;;;;;;;3.38;2.40;;;17.30;99.90;;;;;;6214313;23;20043;-75
2023/05/20 05:25:09;;;;;;;3.13;1.85;;;17.80;99.90;;;;;;6214713;23;20024;-74
2023/05/20 05:27:35;;;;;;;3.50;2.10;;;18.00;99.90;;;;;;6215043;23;20087;-73
2023/05/20 05:30:02;;;;;;;2.72;1.67;;;18.20;99.90;;;;;;6215347;23;20067;-73
2023/05/20 05:32:27;;;;;;;3.20;2.05;;;18.40;99.90;;;;;;6214990;23;20013;-74
2023/05/20 05:34:53;;;;;;;2.35;1.90;;;18.80;99.90;;;;;;6214725;23;20082;-73
2023/05/20 05:37:19;;;;;;;5.75;1.42;;;18.70;99.90;;;;;;6214905;23;20019;-74
2023/05/20 05:39:44;;;;;;;3.67;1.80;;;18.30;99.90;;;;;;6215051;23;20008;-73
2023/05/20 05:42:10;;;;;;;4.85;2.00;;;18.30;99.90;;;;;;6214841;23;20009;-73
2023/05/20 05:44:36;;;;;;;5.18;2.10;;;18.80;99.90;;;;;;6214887;23;20070;-73
2023/05/20 05:47:01;;;;;;;6.15;1.83;;;18.60;99.90;;;;;;6215119;23;20020;-73
2023/05/20 05:49:27;;;;;;;4.43;1.85;;;19.10;99.90;;;;;;6214593;23;20017;-74
2023/05/20 05:51:53;;;;;;;2.75;1.88;;;19.40;99.90;;;;;;6187200;23;20017;-74
2023/05/20 05:54:19;;;;;;;6.03;1.67;;;19.10;99.90;;;;;;6213848;23;20120;-74
2023/05/20 05:56:45;;;;;;;2.72;1.80;;;19.70;99.90;;;;;;6214249;23;20020;-73
2023/05/20 05:59:11;;;;;;;4.35;1.98;;;19.20;99.60;;;;;;6213756;23;20017;-72
2023/05/20 06:01:36;;;;;;;5.90;1.85;;;19.30;99.00;;;;;;6214144;23;20076;-72
2023/05/20 06:04:02;;;;;;;4.07;1.70;;;19.00;98.40;;;;;;6187248;23;20019;-73
2023/05/20 06:06:28;;;;;;;3.63;1.52;;;18.60;99.40;;;;;;6186341;23;20559;-73
2023/05/20 06:08:54;;;;;;;2.30;1.60;;;19.20;99.30;;;;;;6163088;23;20017;-73
2023/05/20 06:11:21;;;;;;;3.38;1.60;;;19.20;99.10;;;;;;6215048;23;20016;-73
2023/05/20 06:13:47;;;;;;;3.00;1.73;;;19.40;97.50;;;;;;6214827;23;20012;-73
2023/05/20 06:16:12;;;;;;;4.13;2.05;;;19.60;98.10;;;;;;6214850;23;20055;-74
2023/05/20 06:18:38;;;;;;;2.22;1.60;;;19.90;97.80;;;;;;6216252;23;20398;-74
2023/05/20 06:21:04;;;;;;;4.28;2.00;;;19.50;96.90;;;;;;6213490;23;20017;-74
2023/05/20 06:23:29;;;;;;;3.85;2.20;;;19.70;97.70;;;;;;6213798;23;20392;-73
2023/05/20 06:25:58;;;;;;;2.75;1.85;;;20.00;97.60;;;;;;6213781;23;20012;-73
2023/05/20 06:28:25;;;;;;;6.78;2.20;;;20.40;97.40;;;;;;6214384;23;20359;-73
2023/05/20 06:30:53;;;;;;;2.88;1.65;;;21.00;96.10;;;;;;6214787;23;20023;-74
2023/05/20 06:33:19;;;;;;;;;;;20.70;95.60;;;;;;6188225;23;20025;-73
2023/05/20 06:35:44;;;;;;;2.00;1.55;;;20.60;95.30;;;;;;6214294;23;19964;-74
2023/05/20 06:38:10;;;;;;;3.55;1.88;;;20.40;94.70;;;;;;6213954;23;20069;-74
2023/05/20 06:40:36;;;;;;;4.18;1.70;;;20.40;95.60;;;;;;6214700;23;20044;-74
2023/05/20 06:43:01;;;;;;;2.53;1.67;;;20.40;94.70;;;;;;6214629;23;20174;-73
2023/05/20 06:45:27;;;;;;;2.92;1.70;;;20.10;94.10;;;;;;6187963;23;20008;-74
2023/05/20 06:47:53;;;;;;;1.98;1.70;;;20.30;94.70;;;;;;6216867;23;20020;-74
2023/05/20 06:50:19;;;;;;;2.50;1.73;;;19.60;94.50;;;;;;6216469;23;20016;-74
2023/05/20 06:52:44;;;;;;;4.00;2.10;;;19.50;94.90;;;;;;6216699;23;20066;-74
2023/05/20 06:55:10;;;;;;;3.25;1.80;;;19.70;95.30;;;;;;6216656;23;20345;-75
2023/05/20 06:57:36;;;;;;;4.13;1.77;;;19.50;95.20;;;;;;6216382;23;20059;-74
2023/05/20 07:00:04;;;;;;;4.32;2.00;;;19.60;95.60;;;;;;6215763;23;20016;-74
2023/05/20 07:02:32;;;;;;;2.55;1.80;;;19.90;95.90;;;;;;6215057;23;20136;-74
2023/05/20 07:04:57;;;;;;;4.00;2.05;;;20.10;96.00;;;;;;6214833;23;20016;-74
2023/05/20 07:07:23;;;;;;;2.90;2.20;;;20.30;94.90;;;;;;6216053;23;20016;-74
2023/05/20 07:09:49;;;;;;;4.10;1.90;;;20.70;95.40;;;;;;6215097;23;20013;-73
2023/05/20 07:12:15;;;;;;;4.63;1.77;;;20.70;95.10;;;;;;6214896;23;20013;-74
2023/05/20 07:14:42;;;;;;;2.42;2.10;;;20.60;94.40;;;;;;6188383;23;20021;-73
2023/05/20 07:17:07;;;;;;;4.40;2.00;;;20.40;94.50;;;;;;6216643;23;20013;-74
2023/05/20 07:19:33;;;;;;;4.18;2.40;;;20.20;94.10;;;;;;6189363;23;20472;-75
2023/05/20 07:21:59;;;;;;;3.05;2.10;;;20.40;94.80;;;;;;6213811;23;20020;-77
2023/05/20 07:24:25;;;;;;;2.80;2.13;;;20.00;94.70;;;;;;6188554;23;20031;-75
2023/05/20 07:26:51;;;;;;;3.00;2.33;;;19.80;95.20;;;;;;6215265;23;20188;-75
2023/05/20 07:29:16;;;;;;;2.20;1.95;;;18.80;95.60;;;;;;6215960;23;20044;-76
2023/05/20 07:31:42;;;;;;;3.33;2.10;;;19.20;96.30;;;;;;6215639;23;20040;-75
2023/05/20 07:34:08;;;;;;;2.95;2.45;;;19.00;96.50;;;;;;6215904;23;20032;-75
2023/05/20 07:36:33;;;;;;;4.57;2.35;;;18.60;96.40;;;;;;6215766;23;20070;-76
2023/05/20 07:38:59;;;;;;;2.80;2.10;;;18.60;97.70;;;;;;6215228;23;20020;-76
2023/05/20 07:41:25;;;;;;;4.13;2.45;;;18.70;98.10;;;;;;6216233;23;20035;-76
2023/05/20 07:43:51;;;;;;;2.03;1.88;;;18.70;97.80;;;;;;6214524;23;20023;-76
2023/05/20 07:46:16;;;;;;;3.67;2.83;;;18.30;97.70;;;;;;6214230;23;20055;-76
2023/05/20 07:48:43;;;;;;;2.97;2.22;;;18.30;98.20;;;;;;6214829;23;20009;-76
2023/05/20 07:51:10;;;;;;;2.95;2.47;;;18.30;99.00;;;;;;6215007;23;20112;-75
2023/05/20 07:53:36;;;;;;;2.63;2.35;;;18.40;99.10;;;;;;6215875;23;20027;-74
2023/05/20 07:56:02;;;;;;;2.95;2.20;;;18.40;99.60;;;;;;6214790;23;20111;-75
2023/05/20 07:58:28;;;;;;;2.80;2.50;;;18.20;99.60;;;;;;6214135;23;20013;-75
2023/05/20 08:00:54;;;;;;;2.80;2.40;;;18.50;99.50;;;;;;6214351;23;20717;-74
2023/05/20 08:03:21;;;;;;;5.07;2.20;;;18.40;99.50;;;;;;6188096;23;20118;-75
2023/05/20 08:05:46;;;;;;;3.58;2.38;;;18.30;99.70;;;;;;6212718;23;20115;-75
2023/05/20 08:08:12;;;;;;;2.58;2.10;;;18.50;99.70;;;;;;6214360;23;20357;-76
2023/05/20 08:10:38;;;;;;;2.58;2.22;;;18.30;99.60;;;;;;6216320;23;20008;-75
2023/05/20 08:13:04;;;;;;;3.53;2.28;;;18.40;99.80;;;;;;6185619;23;20051;-75
2023/05/20 08:15:29;;;;;;;3.13;2.40;;;18.30;98.80;;;;;;6214378;23;20020;-75
2023/05/20 08:17:55;;;;;;;3.10;2.22;;;18.50;99.30;;;;;;6214519;23;20092;-75
2023/05/20 08:20:21;;;;;;;3.05;2.35;;;18.70;99.60;;;;;;6214875;23;20013;-75
2023/05/20 08:22:46;;;;;;;4.13;2.17;;;18.70;99.60;;;;;;6214066;23;20016;-76
2023/05/20 08:25:13;;;;;;;2.38;2.17;;;18.80;99.00;;;;;;6214681;23;20019;-75
2023/05/20 08:27:40;;;;;;;3.67;2.07;;;18.50;98.70;;;;;;6214335;23;20017;-75
2023/05/20 08:30:08;;;;;;;2.38;1.98;;;18.50;98.30;;;;;;6213869;23;20048;-75
2023/05/20 08:32:34;;;;;;;2.72;2.30;;;18.40;98.60;;;;;;6210687;23;20075;-76
2023/05/20 08:35:01;;;;;;;3.40;2.20;;;18.20;98.50;;;;;;6212887;23;20013;-75
2023/05/20 08:37:27;;;;;;;3.35;2.15;;;18.30;99.10;;;;;;6187066;23;20035;-74
2023/05/20 08:39:53;;;;;;;5.05;1.90;;;18.30;99.40;;;;;;6214525;23;20060;-74
2023/05/20 08:42:21;;;;;;;3.03;2.15;;;18.40;99.20;;;;;;6213500;23;20013;-75
2023/05/20 08:44:48;;;;;;;3.15;2.00;;;18.30;98.70;;;;;;6214401;23;20013;-75
2023/05/20 08:47:14;;;;;;;5.43;2.43;;;18.40;98.90;;;;;;6182816;23;20027;-75
2023/05/20 08:49:39;;;;;;;3.33;2.00;;;18.50;98.80;;;;;;6212375;23;20016;-75
2023/05/20 08:52:07;;;;;;;3.33;2.33;;;18.40;98.60;;;;;;6213384;23;20020;-76
2023/05/20 08:54:45;;;;;;;4.03;1.98;;;18.60;98.80;;;;;;6215462;23;20067;-76
2023/05/20 08:57:12;;;;;;;2.33;1.95;;;18.70;98.50;;;;;;6212033;23;20008;-74
2023/05/20 08:59:41;;;;;;;3.58;1.90;;;18.60;98.30;;;;;;6211298;23;20096;-76
2023/05/20 09:02:08;;;;;;;3.75;1.80;;;18.60;98.90;;;;;;6214053;23;20326;-76
2023/05/20 09:04:33;;;;;;;3.90;2.50;;;18.80;98.90;;;;;;6212306;23;20345;-75
2023/05/20 09:06:59;;;;;;;4.53;2.33;;;19.00;98.80;;;;;;6212160;23;20012;-76
2023/05/20 09:09:25;;;;;;;8.77;2.13;;;18.70;98.60;;;;;;6212972;23;20024;-76
2023/05/20 09:11:50;;;;;;;3.28;1.92;;;18.60;98.60;;;;;;6213601;23;20066;-75
2023/05/20 09:14:16;;;;;;;3.60;2.20;;;18.60;98.50;;;;;;6213354;23;20344;-74
2023/05/20 09:16:42;;;;;;;4.00;2.25;;;18.80;98.40;;;;;;6184804;23;20369;-74
2023/05/20 09:19:08;;;;;;;2.28;1.77;;;19.20;98.20;;;;;;6213783;23;20009;-75
2023/05/20 09:21:34;;;;;;;2.60;2.10;;;19.10;97.30;;;;;;6212126;23;20340;-75
2023/05/20 09:24:03;;;;;;;5.80;2.00;;;19.20;97.40;;;;;;6184389;23;20314;-75
2023/05/20 09:26:29;;;;;;;2.97;1.70;;;19.90;97.90;;;;;;6212673;23;20337;-75
2023/05/20 09:28:56;;;;;;;5.40;2.10;;;19.80;95.40;;;;;;6212901;23;20013;-74
2023/05/20 09:31:25;;;;;;;4.18;2.08;;;19.80;96.60;;;;;;6212174;23;20020;-75
2023/05/20 09:33:51;;;;;;;2.63;2.00;;;19.90;97.00;;;;;;6213354;23;20023;-75
2023/05/20 09:36:19;;;;;;;4.60;1.75;;;20.30;97.30;;;;;;6212933;23;20502;-75
2023/05/20 09:38:46;;;;;;;5.15;2.05;;;20.60;96.70;;;;;;6211798;23;20020;-74
2023/05/20 09:41:12;;;;;;;3.97;1.80;;;20.60;96.20;;;;;;6211931;23;20036;-74
2023/05/20 09:43:41;;;;;;;3.17;1.85;;;20.40;95.80;;;;;;6214483;23;20009;-75
2023/05/20 09:46:07;;;;;;;3.78;2.28;;;20.30;95.00;;;;;;6212194;23;20348;-74
2023/05/20 09:48:38;;;;;;;3.92;1.80;;;19.80;94.90;;;;;;6212788;23;20028;-74
2023/05/20 09:51:04;;;;;;;2.65;1.58;;;19.20;95.70;;;;;;6211885;23;20021;-73
2023/05/20 09:53:30;;;;;;;6.63;1.92;;;18.90;95.60;;;;;;6212946;23;20200;-74
2023/05/20 09:55:56;;;;;;;3.90;1.85;;;19.30;95.90;;;;;;6214180;23;20016;-74
2023/05/20 09:58:23;;;;;;;2.80;2.03;;;19.80;96.30;;;;;;6184972;23;20056;-74
2023/05/20 10:00:48;;;;;;;3.22;1.80;;;20.00;96.00;;;;;;6213028;23;20023;-74
2023/05/20 10:03:14;;;;;;;1.30;1.20;;;19.70;94.60;;;;;;6186258;23;20025;-74
2023/05/20 10:05:59;;;;;;;3.17;1.63;;;19.90;93.90;;;;;;6213795;23;20016;-73
2023/05/20 10:08:38;;;;;;;3.38;1.67;;;19.70;94.50;;;;;;6214434;23;20075;-73
2023/05/20 10:11:13;;;;;;;2.33;1.60;;;19.50;94.20;;;;;;6213154;23;20043;-73
2023/05/20 10:13:47;;;;;;;6.93;1.88;;;19.50;94.40;;;;;;6186991;23;20098;-74
2023/05/20 10:16:41;;;;;;;1.95;1.23;;;19.60;94.90;;;;;;6214133;23;20059;-73
2023/05/20 10:19:39;;;;;;;1.83;1.30;;;19.60;94.10;;;;;;6212578;23;20023;-74
2023/05/20 10:22:10;;;;;;;3.17;1.90;;;19.60;93.60;;;;;;6133817;23;20445;-73
2023/05/20 10:24:40;;;;;;;5.43;1.48;;;19.60;94.00;;;;;;6216069;23;20020;-73
2023/05/20 10:27:17;;;;;;;1.60;1.50;;;19.80;94.20;;;;;;6215024;23;20087;-73
2023/05/20 10:29:50;;;;;;;2.30;1.63;;;20.20;93.90;;;;;;6216413;23;20025;-73
2023/05/20 10:32:31;;;;;;;3.40;1.77;;;20.50;93.40;;;;;;6216399;23;20044;-73
2023/05/20 10:35:03;;;;;;;5.95;1.85;;;20.80;93.80;;;;;;6216564;23;20100;-74
2023/05/20 10:37:41;;;;;;;2.85;1.60;;;20.80;93.20;;;;;;6215490;23;20393;-73
2023/05/20 10:40:10;;;;;;;;;;;20.70;93.00;;;;;;6216558;23;20028;-74
2023/05/20 10:42:36;;;;;;;2.20;1.60;;;20.80;92.90;;;;;;6216682;23;19923;-74
2023/05/20 10:45:02;;;;;;;3.17;1.77;;;20.80;93.30;;;;;;6216702;23;20445;-73
2023/05/20 10:47:29;;;;;;;3.40;1.60;;;20.60;92.60;;;;;;6187736;23;20020;-73
2023/05/20 10:49:55;;;;;;;6.18;1.70;;;20.80;92.90;;;;;;6215912;23;20012;-74
2023/05/20 10:52:21;;;;;;;3.65;1.85;;;21.00;92.40;;;;;;6217020;23;20017;-73
2023/05/20 10:54:53;;;;;;;4.32;2.00;;;21.00;92.10;;;;;;6216677;23;20310;-73
2023/05/20 10:57:20;;;;;;;2.63;1.67;;;21.20;92.50;;;;;;6216043;23;20071;-74
2023/05/20 10:59:46;;;;;;;5.15;1.75;;;20.80;92.00;;;;;;6215609;23;20009;-74
2023/05/20 11:02:15;;;;;;;4.32;1.70;;;20.20;92.10;;;;;;6216736;23;20020;-74
2023/05/20 11:04:44;;;;;;;3.65;1.85;;;20.10;93.00;;;;;;6216586;23;20013;-73
2023/05/20 11:07:10;;;;;;;3.63;1.90;;;19.90;92.90;;;;;;6215280;23;20021;-73
2023/05/20 11:09:36;;;;;;;3.90;1.77;;;20.00;93.40;;;;;;6164270;23;20020;-73
2023/05/20 11:12:01;;;;;;;3.25;1.90;;;20.20;93.60;;;;;;6189964;23;20023;-73
2023/05/20 11:14:30;;;;;;;3.28;1.60;;;20.30;93.10;;;;;;6216663;23;20012;-74
2023/05/20 11:16:58;;;;;;;3.20;2.00;;;20.20;92.30;;;;;;6216464;23;20020;-73
2023/05/20 11:19:25;;;;;;;3.70;1.80;;;20.40;92.90;;;;;;6215298;23;20013;-73
2023/05/20 11:21:51;;;;;;;3.60;1.77;;;20.30;92.60;;;;;;6215725;23;20314;-74
2023/05/20 11:24:27;;;;;;;3.90;1.70;;;20.60;92.60;;;;;;6216431;23;20035;-73
2023/05/20 11:26:54;;;;;;;1.85;1.58;;;20.60;92.10;;;;;;6216113;23;20445;-73
2023/05/20 11:29:21;;;;;;;1.85;1.40;;;20.80;92.50;;;;;;6214547;23;20012;-73
2023/05/20 11:31:52;;;;;;;3.83;1.35;;;20.80;92.20;;;;;;6216287;23;20020;-73
2023/05/20 11:34:21;;;;;;;4.85;1.60;;;20.80;92.30;;;;;;6215131;23;20019;-73
2023/05/20 11:36:49;;;;;;;3.47;1.40;;;21.00;91.90;;;;;;6216325;23;20036;-73
2023/05/20 11:39:15;;;;;;;3.55;1.70;;;21.10;91.70;;;;;;6215057;23;20019;-73
2023/05/20 11:41:41;;;;;;;5.18;1.50;;;20.60;91.80;;;;;;6216100;23;20088;-73
2023/05/20 11:44:12;;;;;;;1.75;1.55;;;20.70;92.40;;;;;;6214999;23;20009;-73
2023/05/20 11:46:46;;;;;;;3.30;1.85;;;21.10;92.40;;;;;;6216320;23;20062;-74
2023/05/20 11:49:15;;;;;;;3.53;1.52;;;20.80;91.90;;;;;;6215028;23;20028;-74
2023/05/20 11:51:42;;;;;;;2.78;1.35;;;20.60;91.60;;;;;;6216053;23;20036;-74
2023/05/20 11:54:09;;;;;;;3.93;1.50;;;20.60;91.80;;;;;;6215510;23;20015;-74
2023/05/20 11:56:36;;;;;;;2.53;1.60;;;20.70;92.10;;;;;;6188587;23;20028;-73
2023/05/20 11:59:03;;;;;;;;;;;20.80;91.90;;;;;;6216078;23;20028;-73
2023/05/20 12:01:30;;;;;;;3.17;1.57;;;20.50;91.80;;;;;;6215791;23;19923;-73
2023/05/20 12:03:56;;;;;;;3.65;1.30;;;20.90;92.60;;;;;;6212598;23;20242;-73
2023/05/20 12:06:22;;;;;;;2.38;1.35;;;21.00;91.20;;;;;;6212852;23;20313;-74
2023/05/20 12:08:47;;;;;;;3.47;1.50;;;21.20;90.80;;;;;;6215506;23;20012;-73
2023/05/20 12:11:13;;;;;;;2.83;1.67;;;21.40;91.20;;;;;;6188509;23;20093;-74
2023/05/20 12:13:39;;;;;;;4.68;1.45;;;21.80;96.70;;;;;;6215742;23;20008;-74
2023/05/20 12:16:05;;;;;;;5.40;1.58;;;21.90;90.70;;;;;;6215311;23;20384;-74
2023/05/20 12:18:31;;;;;;;3.05;1.30;;;22.10;91.10;;;;;;6215692;23;20027;-74
2023/05/20 12:20:58;;;;;;;3.15;1.30;;;22.00;90.50;;;;;;6215414;23;20087;-74
2023/05/20 12:23:23;;;;;;;3.15;1.60;;;22.30;90.80;;;;;;6163965;23;20027;-74
2023/05/20 12:25:49;;;;;;;3.63;1.60;;;21.60;90.30;;;;;;6215180;23;20048;-73
2023/05/20 12:28:16;;;;;;;2.80;1.60;;;21.50;90.20;;;;;;6215559;23;20020;-74
2023/05/20 12:30:42;;;;;;;5.85;1.83;;;21.50;90.70;;;;;;6215835;23;20020;-73
2023/05/20 12:33:08;;;;;;;2.75;1.60;;;21.60;90.80;;;;;;6188825;23;20071;-73
2023/05/20 12:35:42;;;;;;;4.57;1.60;;;21.40;90.80;;;;;;6215284;23;20020;-74
2023/05/20 12:38:08;;;;;;;4.35;1.70;;;21.00;90.80;;;;;;6214949;23;20013;-73
2023/05/20 12:40:34;;;;;;;2.67;1.42;;;21.10;90.90;;;;;;6215687;23;20342;-73
2023/05/20 12:43:01;;;;;;;3.80;1.55;;;21.20;90.90;;;;;;6214709;23;20091;-74
2023/05/20 12:45:27;;;;;;;2.17;1.60;;;21.80;91.30;;;;;;6216701;23;20035;-74